Terminal Aerodrome Forecast
Issued by NWS

Home | Current Version | Previous Version | Graphics & Text | Print | Product List | Glossary On
Versions: 1 2 3 4 5 6 7 8 9 10 11 12 13 14 15 16 17 18 19 20 21 22 23 24 25 26 27
000
FTUS43 KBIS 152337
TAFJMS
TAF
KJMS 152337Z 1600/1624 11007KT 6SM -SHRA OVC025
     FM160200 10006KT P6SM VCSH OVC015
     FM160600 09005KT P6SM OVC010
     FM160800 02005KT 3SM BR OVC008
     FM161400 36009KT P6SM OVC008
     FM162100 35011KT P6SM SCT060=

USA.gov is the U.S. government's official web portal to all federal, state and local government web resources and services.